sensor_id;sensor_type;location;lat;lon;timestamp;temperature;humidity
61255;DHT22;47128;47.530;8.584;2023-06-19T00:02:17;19.90;99.10
61255;DHT22;47128;47.530;8.584;2023-06-19T00:04:42;19.90;99.00
61255;DHT22;47128;47.530;8.584;2023-06-19T00:07:08;19.80;98.90
61255;DHT22;47128;47.530;8.584;2023-06-19T00:09:33;19.70;99.20
61255;DHT22;47128;47.530;8.584;2023-06-19T00:11:59;19.70;99.10
61255;DHT22;47128;47.530;8.584;2023-06-19T00:14:25;19.70;99.20
61255;DHT22;47128;47.530;8.584;2023-06-19T00:16:51;19.70;98.80
61255;DHT22;47128;47.530;8.584;2023-06-19T00:19:16;19.90;98.60
61255;DHT22;47128;47.530;8.584;2023-06-19T00:21:42;19.90;98.30
61255;DHT22;47128;47.530;8.584;2023-06-19T00:24:08;20.00;98.50
61255;DHT22;47128;47.530;8.584;2023-06-19T00:26:34;20.10;98.10
61255;DHT22;47128;47.530;8.584;2023-06-19T00:29:00;20.00;98.30
61255;DHT22;47128;47.530;8.584;2023-06-19T00:31:25;20.00;98.00
61255;DHT22;47128;47.530;8.584;2023-06-19T00:33:52;20.00;97.80
61255;DHT22;47128;47.530;8.584;2023-06-19T00:36:18;20.00;97.60
61255;DHT22;47128;47.530;8.584;2023-06-19T00:38:47;20.10;97.80
61255;DHT22;47128;47.530;8.584;2023-06-19T00:41:13;20.10;97.70
61255;DHT22;47128;47.530;8.584;2023-06-19T00:43:40;20.10;97.60
61255;DHT22;47128;47.530;8.584;2023-06-19T00:46:05;20.20;97.60
61255;DHT22;47128;47.530;8.584;2023-06-19T00:48:31;20.30;97.60
61255;DHT22;47128;47.530;8.584;2023-06-19T00:50:57;20.40;97.30
61255;DHT22;47128;47.530;8.584;2023-06-19T00:53:23;20.60;96.90
61255;DHT22;47128;47.530;8.584;2023-06-19T00:55:53;20.60;96.60
61255;DHT22;47128;47.530;8.584;2023-06-19T00:58:19;20.60;96.50
61255;DHT22;47128;47.530;8.584;2023-06-19T01:00:45;20.60;96.70
61255;DHT22;47128;47.530;8.584;2023-06-19T01:03:10;20.50;96.70
61255;DHT22;47128;47.530;8.584;2023-06-19T01:05:36;20.40;97.00
61255;DHT22;47128;47.530;8.584;2023-06-19T01:10:47;20.40;96.80
61255;DHT22;47128;47.530;8.584;2023-06-19T01:13:16;20.50;97.00
61255;DHT22;47128;47.530;8.584;2023-06-19T01:15:42;20.50;96.80
61255;DHT22;47128;47.530;8.584;2023-06-19T01:18:08;20.40;97.60
61255;DHT22;47128;47.530;8.584;2023-06-19T01:20:37;20.40;97.80
61255;DHT22;47128;47.530;8.584;2023-06-19T01:23:09;20.30;97.80
61255;DHT22;47128;47.530;8.584;2023-06-19T01:25:35;20.30;97.60
61255;DHT22;47128;47.530;8.584;2023-06-19T01:28:03;20.30;98.40
61255;DHT22;47128;47.530;8.584;2023-06-19T01:30:31;20.30;98.50
61255;DHT22;47128;47.530;8.584;2023-06-19T01:32:58;20.20;98.70
61255;DHT22;47128;47.530;8.584;2023-06-19T01:35:30;20.30;98.60
61255;DHT22;47128;47.530;8.584;2023-06-19T01:37:56;20.40;99.90
61255;DHT22;47128;47.530;8.584;2023-06-19T01:40:22;20.30;99.90
61255;DHT22;47128;47.530;8.584;2023-06-19T01:42:54;20.10;99.90
61255;DHT22;47128;47.530;8.584;2023-06-19T01:45:20;20.00;99.90
61255;DHT22;47128;47.530;8.584;2023-06-19T01:47:46;20.00;99.90
61255;DHT22;47128;47.530;8.584;2023-06-19T01:50:11;20.00;99.90
61255;DHT22;47128;47.530;8.584;2023-06-19T01:52:40;20.00;99.90
61255;DHT22;47128;47.530;8.584;2023-06-19T01:55:07;20.10;99.90
61255;DHT22;47128;47.530;8.584;2023-06-19T01:57:33;20.30;99.90
61255;DHT22;47128;47.530;8.584;2023-06-19T02:02:24;20.40;99.90
61255;DHT22;47128;47.530;8.584;2023-06-19T02:04:49;20.20;99.90
61255;DHT22;47128;47.530;8.584;2023-06-19T02:07:15;20.20;99.90
61255;DHT22;47128;47.530;8.584;2023-06-19T02:09:40;20.10;99.90
61255;DHT22;47128;47.530;8.584;2023-06-19T02:12:07;19.90;99.90
61255;DHT22;47128;47.530;8.584;2023-06-19T02:14:32;19.80;99.90
61255;DHT22;47128;47.530;8.584;2023-06-19T02:16:58;19.80;99.90
61255;DHT22;47128;47.530;8.584;2023-06-19T02:19:23;19.70;99.90
61255;DHT22;47128;47.530;8.584;2023-06-19T02:21:49;19.60;99.90
61255;DHT22;47128;47.530;8.584;2023-06-19T02:24:14;19.60;99.90
61255;DHT22;47128;47.530;8.584;2023-06-19T02:26:39;19.60;99.90
61255;DHT22;47128;47.530;8.584;2023-06-19T02:29:05;19.50;99.90
61255;DHT22;47128;47.530;8.584;2023-06-19T02:31:30;19.50;99.90
61255;DHT22;47128;47.530;8.584;2023-06-19T02:33:56;19.50;99.90
61255;DHT22;47128;47.530;8.584;2023-06-19T02:36:21;19.50;99.90
61255;DHT22;47128;47.530;8.584;2023-06-19T02:38:47;19.40;99.90
61255;DHT22;47128;47.530;8.584;2023-06-19T02:41:13;19.40;99.90
61255;DHT22;47128;47.530;8.584;2023-06-19T02:43:39;19.40;99.90
61255;DHT22;47128;47.530;8.584;2023-06-19T02:46:05;19.40;99.90
61255;DHT22;47128;47.530;8.584;2023-06-19T02:48:31;19.50;99.90
61255;DHT22;47128;47.530;8.584;2023-06-19T02:50:56;19.40;99.90
61255;DHT22;47128;47.530;8.584;2023-06-19T02:53:21;19.40;99.90
61255;DHT22;47128;47.530;8.584;2023-06-19T02:55:47;19.40;99.90
61255;DHT22;47128;47.530;8.584;2023-06-19T02:58:13;19.30;99.90
61255;DHT22;47128;47.530;8.584;2023-06-19T03:00:38;19.30;99.90
61255;DHT22;47128;47.530;8.584;2023-06-19T03:03:04;19.30;99.90
61255;DHT22;47128;47.530;8.584;2023-06-19T03:05:29;19.30;99.90
61255;DHT22;47128;47.530;8.584;2023-06-19T03:07:55;19.30;99.90
61255;DHT22;47128;47.530;8.584;2023-06-19T03:10:20;19.20;99.90
61255;DHT22;47128;47.530;8.584;2023-06-19T03:12:46;19.30;99.90
61255;DHT22;47128;47.530;8.584;2023-06-19T03:15:11;19.30;99.90
61255;DHT22;47128;47.530;8.584;2023-06-19T03:17:37;19.20;99.90
61255;DHT22;47128;47.530;8.584;2023-06-19T03:20:02;19.20;99.90
61255;DHT22;47128;47.530;8.584;2023-06-19T03:22:31;19.20;99.90
61255;DHT22;47128;47.530;8.584;2023-06-19T03:24:56;19.20;99.90
61255;DHT22;47128;47.530;8.584;2023-06-19T03:27:22;19.30;99.90
61255;DHT22;47128;47.530;8.584;2023-06-19T03:29:47;19.20;99.90
61255;DHT22;47128;47.530;8.584;2023-06-19T03:32:13;19.30;99.90
61255;DHT22;47128;47.530;8.584;2023-06-19T03:34:38;19.30;99.90
61255;DHT22;47128;47.530;8.584;2023-06-19T03:37:04;19.40;99.90
61255;DHT22;47128;47.530;8.584;2023-06-19T03:39:29;19.30;99.90
61255;DHT22;47128;47.530;8.584;2023-06-19T03:41:55;19.30;99.90
61255;DHT22;47128;47.530;8.584;2023-06-19T03:44:21;19.30;99.90
61255;DHT22;47128;47.530;8.584;2023-06-19T03:46:46;19.20;99.90
61255;DHT22;47128;47.530;8.584;2023-06-19T03:49:12;19.20;99.90
61255;DHT22;47128;47.530;8.584;2023-06-19T03:51:38;19.20;99.90
61255;DHT22;47128;47.530;8.584;2023-06-19T03:54:04;19.20;99.90
61255;DHT22;47128;47.530;8.584;2023-06-19T03:56:29;19.30;99.90
61255;DHT22;47128;47.530;8.584;2023-06-19T03:58:54;19.30;99.90
61255;DHT22;47128;47.530;8.584;2023-06-19T04:01:20;19.30;99.90
61255;DHT22;47128;47.530;8.584;2023-06-19T04:03:45;19.30;99.90
61255;DHT22;47128;47.530;8.584;2023-06-19T04:06:11;19.30;99.90
61255;DHT22;47128;47.530;8.584;2023-06-19T04:08:37;19.30;99.90
61255;DHT22;47128;47.530;8.584;2023-06-19T04:11:02;19.30;99.90
61255;DHT22;47128;47.530;8.584;2023-06-19T04:13:27;19.40;99.90
61255;DHT22;47128;47.530;8.584;2023-06-19T04:15:53;19.40;99.90
61255;DHT22;47128;47.530;8.584;2023-06-19T04:18:18;19.30;99.90
61255;DHT22;47128;47.530;8.584;2023-06-19T04:20:46;19.30;99.90
61255;DHT22;47128;47.530;8.584;2023-06-19T04:23:11;19.30;99.90
61255;DHT22;47128;47.530;8.584;2023-06-19T04:25:38;19.30;99.90
61255;DHT22;47128;47.530;8.584;2023-06-19T04:28:03;19.30;99.90
61255;DHT22;47128;47.530;8.584;2023-06-19T04:30:29;19.40;99.90
61255;DHT22;47128;47.530;8.584;2023-06-19T04:32:57;19.30;99.90
61255;DHT22;47128;47.530;8.584;2023-06-19T04:35:22;19.30;99.90
61255;DHT22;47128;47.530;8.584;2023-06-19T04:37:49;19.30;99.90
61255;DHT22;47128;47.530;8.584;2023-06-19T04:40:14;19.40;99.90
61255;DHT22;47128;47.530;8.584;2023-06-19T04:42:40;19.40;99.90
61255;DHT22;47128;47.530;8.584;2023-06-19T04:45:06;19.40;99.90
61255;DHT22;47128;47.530;8.584;2023-06-19T04:47:34;19.50;99.90
61255;DHT22;47128;47.530;8.584;2023-06-19T04:50:00;19.50;99.90
61255;DHT22;47128;47.530;8.584;2023-06-19T04:52:25;19.40;99.90
61255;DHT22;47128;47.530;8.584;2023-06-19T04:54:51;19.50;99.90
61255;DHT22;47128;47.530;8.584;2023-06-19T04:57:16;19.50;99.90
61255;DHT22;47128;47.530;8.584;2023-06-19T04:59:43;19.40;99.90
61255;DHT22;47128;47.530;8.584;2023-06-19T05:02:11;19.40;99.90
61255;DHT22;47128;47.530;8.584;2023-06-19T05:07:40;19.30;99.90
61255;DHT22;47128;47.530;8.584;2023-06-19T05:10:06;19.30;99.90
61255;DHT22;47128;47.530;8.584;2023-06-19T05:12:31;19.30;99.90
61255;DHT22;47128;47.530;8.584;2023-06-19T05:14:57;19.40;99.90
61255;DHT22;47128;47.530;8.584;2023-06-19T05:17:22;19.40;99.90
61255;DHT22;47128;47.530;8.584;2023-06-19T05:19:48;19.40;99.90
61255;DHT22;47128;47.530;8.584;2023-06-19T05:22:13;19.50;99.90
61255;DHT22;47128;47.530;8.584;2023-06-19T05:24:39;19.50;99.90
61255;DHT22;47128;47.530;8.584;2023-06-19T05:27:04;19.50;99.90
61255;DHT22;47128;47.530;8.584;2023-06-19T05:29:30;19.50;99.90
61255;DHT22;47128;47.530;8.584;2023-06-19T05:31:56;19.60;99.90
61255;DHT22;47128;47.530;8.584;2023-06-19T05:34:21;19.70;99.90
61255;DHT22;47128;47.530;8.584;2023-06-19T05:36:47;19.80;99.90
61255;DHT22;47128;47.530;8.584;2023-06-19T05:39:13;19.70;99.90
61255;DHT22;47128;47.530;8.584;2023-06-19T05:41:39;19.60;99.90
61255;DHT22;47128;47.530;8.584;2023-06-19T05:44:06;19.70;99.90
61255;DHT22;47128;47.530;8.584;2023-06-19T05:46:41;19.60;99.90
61255;DHT22;47128;47.530;8.584;2023-06-19T05:49:07;19.60;99.90
61255;DHT22;47128;47.530;8.584;2023-06-19T05:51:32;19.60;99.90
61255;DHT22;47128;47.530;8.584;2023-06-19T05:57:01;19.70;99.90
61255;DHT22;47128;47.530;8.584;2023-06-19T05:59:28;19.80;99.90
61255;DHT22;47128;47.530;8.584;2023-06-19T06:01:54;19.90;99.90
61255;DHT22;47128;47.530;8.584;2023-06-19T06:04:20;20.00;99.90
61255;DHT22;47128;47.530;8.584;2023-06-19T06:13:01;20.00;99.90
61255;DHT22;47128;47.530;8.584;2023-06-19T06:18:42;20.00;99.90
61255;DHT22;47128;47.530;8.584;2023-06-19T06:21:16;20.00;99.90
61255;DHT22;47128;47.530;8.584;2023-06-19T06:23:44;20.20;99.90
61255;DHT22;47128;47.530;8.584;2023-06-19T06:32:04;20.40;99.90
61255;DHT22;47128;47.530;8.584;2023-06-19T06:34:33;20.50;99.90
61255;DHT22;47128;47.530;8.584;2023-06-19T06:36:59;20.50;99.90
61255;DHT22;47128;47.530;8.584;2023-06-19T06:45:46;22.00;99.90
61255;DHT22;47128;47.530;8.584;2023-06-19T06:48:12;23.20;99.90
61255;DHT22;47128;47.530;8.584;2023-06-19T06:50:38;24.10;99.90
61255;DHT22;47128;47.530;8.584;2023-06-19T06:53:04;25.80;99.10
61255;DHT22;47128;47.530;8.584;2023-06-19T06:55:29;26.80;97.70
61255;DHT22;47128;47.530;8.584;2023-06-19T06:57:55;27.50;95.80
61255;DHT22;47128;47.530;8.584;2023-06-19T07:00:20;28.20;94.90
61255;DHT22;47128;47.530;8.584;2023-06-19T07:02:46;27.50;95.90
61255;DHT22;47128;47.530;8.584;2023-06-19T07:05:13;26.70;94.40
61255;DHT22;47128;47.530;8.584;2023-06-19T07:10:42;25.10;99.90
61255;DHT22;47128;47.530;8.584;2023-06-19T07:13:08;25.00;99.90
61255;DHT22;47128;47.530;8.584;2023-06-19T07:15:33;25.00;98.50
61255;DHT22;47128;47.530;8.584;2023-06-19T07:21:02;24.60;99.90
61255;DHT22;47128;47.530;8.584;2023-06-19T07:26:32;23.80;99.90
61255;DHT22;47128;47.530;8.584;2023-06-19T07:34:51;24.20;99.60
61255;DHT22;47128;47.530;8.584;2023-06-19T07:45:49;23.40;99.90
61255;DHT22;47128;47.530;8.584;2023-06-19T07:48:15;23.30;99.90
61255;DHT22;47128;47.530;8.584;2023-06-19T07:50:41;23.40;99.90
61255;DHT22;47128;47.530;8.584;2023-06-19T08:05:06;23.60;99.90
61255;DHT22;47128;47.530;8.584;2023-06-19T08:07:34;23.80;99.90
61255;DHT22;47128;47.530;8.584;2023-06-19T08:09:59;23.70;99.90
61255;DHT22;47128;47.530;8.584;2023-06-19T08:12:26;23.90;99.90
61255;DHT22;47128;47.530;8.584;2023-06-19T08:18:36;24.00;99.90
61255;DHT22;47128;47.530;8.584;2023-06-19T08:21:02;24.20;99.50
61255;DHT22;47128;47.530;8.584;2023-06-19T08:23:27;24.50;99.90
61255;DHT22;47128;47.530;8.584;2023-06-19T08:25:53;24.80;98.50
61255;DHT22;47128;47.530;8.584;2023-06-19T08:34:07;25.80;96.50
61255;DHT22;47128;47.530;8.584;2023-06-19T08:36:35;26.20;96.60
61255;DHT22;47128;47.530;8.584;2023-06-19T08:42:07;26.20;96.00
61255;DHT22;47128;47.530;8.584;2023-06-19T08:47:36;25.90;95.60
61255;DHT22;47128;47.530;8.584;2023-06-19T08:50:04;26.10;96.20
61255;DHT22;47128;47.530;8.584;2023-06-19T08:52:32;26.20;95.90
61255;DHT22;47128;47.530;8.584;2023-06-19T08:54:58;26.50;95.60
61255;DHT22;47128;47.530;8.584;2023-06-19T08:57:39;26.60;95.50
61255;DHT22;47128;47.530;8.584;2023-06-19T09:00:11;26.80;95.90
61255;DHT22;47128;47.530;8.584;2023-06-19T09:02:42;26.80;94.30
61255;DHT22;47128;47.530;8.584;2023-06-19T09:05:15;26.80;94.70
61255;DHT22;47128;47.530;8.584;2023-06-19T09:08:02;26.80;94.80
61255;DHT22;47128;47.530;8.584;2023-06-19T09:13:31;26.90;94.00
61255;DHT22;47128;47.530;8.584;2023-06-19T09:25:05;27.10;93.80
61255;DHT22;47128;47.530;8.584;2023-06-19T09:27:32;27.20;93.40
61255;DHT22;47128;47.530;8.584;2023-06-19T09:29:59;27.40;93.30
61255;DHT22;47128;47.530;8.584;2023-06-19T09:32:26;27.20;91.90
61255;DHT22;47128;47.530;8.584;2023-06-19T09:34:54;27.10;92.40
61255;DHT22;47128;47.530;8.584;2023-06-19T09:37:24;27.20;92.70
61255;DHT22;47128;47.530;8.584;2023-06-19T09:39:52;27.30;92.60
61255;DHT22;47128;47.530;8.584;2023-06-19T09:42:18;27.50;92.60
61255;DHT22;47128;47.530;8.584;2023-06-19T09:44:45;27.30;92.00
61255;DHT22;47128;47.530;8.584;2023-06-19T09:47:21;27.30;92.50
61255;DHT22;47128;47.530;8.584;2023-06-19T09:49:55;27.10;92.10
61255;DHT22;47128;47.530;8.584;2023-06-19T09:52:23;27.20;92.50
61255;DHT22;47128;47.530;8.584;2023-06-19T09:58:07;27.40;92.70
61255;DHT22;47128;47.530;8.584;2023-06-19T10:00:33;27.90;92.00
61255;DHT22;47128;47.530;8.584;2023-06-19T10:09:07;27.50;92.00
61255;DHT22;47128;47.530;8.584;2023-06-19T10:17:45;27.60;92.00
61255;DHT22;47128;47.530;8.584;2023-06-19T10:25:43;27.80;90.70
61255;DHT22;47128;47.530;8.584;2023-06-19T10:31:04;27.40;90.70
61255;DHT22;47128;47.530;8.584;2023-06-19T10:36:33;27.50;90.70
61255;DHT22;47128;47.530;8.584;2023-06-19T10:45:07;28.20;90.40
61255;DHT22;47128;47.530;8.584;2023-06-19T10:50:56;28.80;87.60
61255;DHT22;47128;47.530;8.584;2023-06-19T10:53:29;28.60;88.60
61255;DHT22;47128;47.530;8.584;2023-06-19T11:01:43;29.50;85.20
61255;DHT22;47128;47.530;8.584;2023-06-19T11:07:12;29.20;85.80
61255;DHT22;47128;47.530;8.584;2023-06-19T11:09:38;29.10;86.00
61255;DHT22;47128;47.530;8.584;2023-06-19T11:12:04;29.40;85.00
61255;DHT22;47128;47.530;8.584;2023-06-19T11:14:33;29.50;85.10
61255;DHT22;47128;47.530;8.584;2023-06-19T11:23:11;29.90;84.50
61255;DHT22;47128;47.530;8.584;2023-06-19T11:28:39;29.90;91.30
61255;DHT22;47128;47.530;8.584;2023-06-19T11:31:06;30.10;89.30
61255;DHT22;47128;47.530;8.584;2023-06-19T11:33:32;30.20;88.90
61255;DHT22;47128;47.530;8.584;2023-06-19T11:36:01;30.10;81.40
61255;DHT22;47128;47.530;8.584;2023-06-19T11:38:28;30.40;86.90
61255;DHT22;47128;47.530;8.584;2023-06-19T11:40:55;30.70;93.30
61255;DHT22;47128;47.530;8.584;2023-06-19T11:43:28;30.90;90.40
61255;DHT22;47128;47.530;8.584;2023-06-19T11:46:07;31.00;87.40
61255;DHT22;47128;47.530;8.584;2023-06-19T11:48:36;30.90;88.10
61255;DHT22;47128;47.530;8.584;2023-06-19T11:51:02;31.00;85.70
61255;DHT22;47128;47.530;8.584;2023-06-19T11:53:29;31.10;81.20
61255;DHT22;47128;47.530;8.584;2023-06-19T11:55:55;30.80;81.70
61255;DHT22;47128;47.530;8.584;2023-06-19T12:07:09;30.30;77.60
61255;DHT22;47128;47.530;8.584;2023-06-19T12:09:34;30.30;78.50
61255;DHT22;47128;47.530;8.584;2023-06-19T12:15:04;30.10;77.30
61255;DHT22;47128;47.530;8.584;2023-06-19T12:17:29;30.10;76.60
61255;DHT22;47128;47.530;8.584;2023-06-19T12:19:55;30.20;75.10
61255;DHT22;47128;47.530;8.584;2023-06-19T12:22:20;30.30;72.80
61255;DHT22;47128;47.530;8.584;2023-06-19T12:24:46;30.30;72.30
61255;DHT22;47128;47.530;8.584;2023-06-19T12:27:13;30.30;73.30
61255;DHT22;47128;47.530;8.584;2023-06-19T12:29:39;30.40;72.60
61255;DHT22;47128;47.530;8.584;2023-06-19T12:32:04;30.50;72.80
61255;DHT22;47128;47.530;8.584;2023-06-19T12:34:30;30.70;72.10
61255;DHT22;47128;47.530;8.584;2023-06-19T12:36:56;30.80;72.90
61255;DHT22;47128;47.530;8.584;2023-06-19T12:39:23;31.00;72.50
61255;DHT22;47128;47.530;8.584;2023-06-19T12:41:50;30.90;70.80
61255;DHT22;47128;47.530;8.584;2023-06-19T12:44:15;30.90;71.80
61255;DHT22;47128;47.530;8.584;2023-06-19T12:46:50;31.10;71.20
61255;DHT22;47128;47.530;8.584;2023-06-19T12:52:18;31.30;70.50
61255;DHT22;47128;47.530;8.584;2023-06-19T12:57:47;31.40;70.50
61255;DHT22;47128;47.530;8.584;2023-06-19T13:00:14;31.50;70.80
61255;DHT22;47128;47.530;8.584;2023-06-19T13:02:40;31.70;70.90
61255;DHT22;47128;47.530;8.584;2023-06-19T13:05:06;31.70;79.70
61255;DHT22;47128;47.530;8.584;2023-06-19T13:07:47;31.90;80.80
61255;DHT22;47128;47.530;8.584;2023-06-19T13:12:39;32.40;69.50
61255;DHT22;47128;47.530;8.584;2023-06-19T13:33:03;31.30;69.40
61255;DHT22;47128;47.530;8.584;2023-06-19T13:35:30;31.40;70.80
61255;DHT22;47128;47.530;8.584;2023-06-19T13:37:56;31.30;71.30
61255;DHT22;47128;47.530;8.584;2023-06-19T13:40:34;31.40;71.00
61255;DHT22;47128;47.530;8.584;2023-06-19T13:51:54;31.00;70.70
61255;DHT22;47128;47.530;8.584;2023-06-19T14:06:32;30.50;72.90
61255;DHT22;47128;47.530;8.584;2023-06-19T14:08:57;30.40;75.70
61255;DHT22;47128;47.530;8.584;2023-06-19T14:11:23;30.30;73.60
61255;DHT22;47128;47.530;8.584;2023-06-19T14:13:48;30.20;75.20
61255;DHT22;47128;47.530;8.584;2023-06-19T14:16:15;30.10;73.80
61255;DHT22;47128;47.530;8.584;2023-06-19T14:18:40;30.10;73.70
61255;DHT22;47128;47.530;8.584;2023-06-19T14:21:06;29.90;85.50
61255;DHT22;47128;47.530;8.584;2023-06-19T14:26:46;29.60;75.60
61255;DHT22;47128;47.530;8.584;2023-06-19T14:29:14;29.70;77.80
61255;DHT22;47128;47.530;8.584;2023-06-19T14:31:41;29.80;80.50
61255;DHT22;47128;47.530;8.584;2023-06-19T14:34:09;29.70;79.60
61255;DHT22;47128;47.530;8.584;2023-06-19T14:36:43;29.80;79.60
61255;DHT22;47128;47.530;8.584;2023-06-19T14:39:10;29.70;78.80
61255;DHT22;47128;47.530;8.584;2023-06-19T14:41:38;29.70;80.90
61255;DHT22;47128;47.530;8.584;2023-06-19T14:44:04;29.80;80.30
61255;DHT22;47128;47.530;8.584;2023-06-19T14:46:29;29.90;75.50
61255;DHT22;47128;47.530;8.584;2023-06-19T14:48:55;29.90;78.30
61255;DHT22;47128;47.530;8.584;2023-06-19T14:51:24;29.90;81.90
61255;DHT22;47128;47.530;8.584;2023-06-19T14:56:52;29.70;80.50
61255;DHT22;47128;47.530;8.584;2023-06-19T15:08:23;30.10;81.40
61255;DHT22;47128;47.530;8.584;2023-06-19T15:10:54;30.00;76.90
61255;DHT22;47128;47.530;8.584;2023-06-19T15:16:40;30.20;75.80
61255;DHT22;47128;47.530;8.584;2023-06-19T15:19:06;30.40;73.60
61255;DHT22;47128;47.530;8.584;2023-06-19T15:24:36;30.80;71.30
61255;DHT22;47128;47.530;8.584;2023-06-19T15:30:04;31.00;70.40
61255;DHT22;47128;47.530;8.584;2023-06-19T15:32:30;31.10;70.00
61255;DHT22;47128;47.530;8.584;2023-06-19T15:34:55;31.10;70.80
61255;DHT22;47128;47.530;8.584;2023-06-19T15:40:24;30.70;71.50
61255;DHT22;47128;47.530;8.584;2023-06-19T15:45:57;30.90;71.60
61255;DHT22;47128;47.530;8.584;2023-06-19T15:51:09;30.80;69.20
61255;DHT22;47128;47.530;8.584;2023-06-19T15:53:38;30.90;72.00
61255;DHT22;47128;47.530;8.584;2023-06-19T15:56:04;30.90;71.60
61255;DHT22;47128;47.530;8.584;2023-06-19T15:58:30;30.70;70.10
61255;DHT22;47128;47.530;8.584;2023-06-19T16:00:55;30.70;70.30
61255;DHT22;47128;47.530;8.584;2023-06-19T16:03:21;30.70;69.60
61255;DHT22;47128;47.530;8.584;2023-06-19T16:05:47;30.90;70.20
61255;DHT22;47128;47.530;8.584;2023-06-19T16:08:16;30.80;68.10
61255;DHT22;47128;47.530;8.584;2023-06-19T16:10:43;30.80;70.20
61255;DHT22;47128;47.530;8.584;2023-06-19T16:13:09;30.90;69.20
61255;DHT22;47128;47.530;8.584;2023-06-19T16:15:34;31.10;68.40
61255;DHT22;47128;47.530;8.584;2023-06-19T16:18:00;31.00;68.30
61255;DHT22;47128;47.530;8.584;2023-06-19T16:20:26;30.80;69.40
61255;DHT22;47128;47.530;8.584;2023-06-19T16:22:51;30.70;69.10
61255;DHT22;47128;47.530;8.584;2023-06-19T16:25:17;30.70;67.20
61255;DHT22;47128;47.530;8.584;2023-06-19T16:27:43;30.60;67.00
61255;DHT22;47128;47.530;8.584;2023-06-19T16:30:09;30.60;64.90
61255;DHT22;47128;47.530;8.584;2023-06-19T16:32:34;30.60;64.90
61255;DHT22;47128;47.530;8.584;2023-06-19T16:40:48;30.30;79.40
61255;DHT22;47128;47.530;8.584;2023-06-19T16:43:13;30.10;66.50
61255;DHT22;47128;47.530;8.584;2023-06-19T16:48:05;30.00;70.50
61255;DHT22;47128;47.530;8.584;2023-06-19T16:50:30;30.10;70.90
61255;DHT22;47128;47.530;8.584;2023-06-19T16:52:56;30.00;72.50
61255;DHT22;47128;47.530;8.584;2023-06-19T16:55:24;30.10;71.60
61255;DHT22;47128;47.530;8.584;2023-06-19T16:57:49;30.00;75.20
61255;DHT22;47128;47.530;8.584;2023-06-19T17:00:16;30.00;74.70
61255;DHT22;47128;47.530;8.584;2023-06-19T17:02:41;29.90;73.10
61255;DHT22;47128;47.530;8.584;2023-06-19T17:05:07;30.00;73.10
61255;DHT22;47128;47.530;8.584;2023-06-19T17:07:33;30.00;73.80
61255;DHT22;47128;47.530;8.584;2023-06-19T17:09:58;30.00;72.70
61255;DHT22;47128;47.530;8.584;2023-06-19T17:12:24;29.90;72.50
61255;DHT22;47128;47.530;8.584;2023-06-19T17:14:50;30.00;72.40
61255;DHT22;47128;47.530;8.584;2023-06-19T17:17:16;29.80;68.60
61255;DHT22;47128;47.530;8.584;2023-06-19T17:22:07;29.60;68.00
61255;DHT22;47128;47.530;8.584;2023-06-19T17:24:32;29.70;75.30
61255;DHT22;47128;47.530;8.584;2023-06-19T17:26:58;29.60;70.60
61255;DHT22;47128;47.530;8.584;2023-06-19T17:29:24;29.60;69.00
61255;DHT22;47128;47.530;8.584;2023-06-19T17:31:52;29.50;68.80
61255;DHT22;47128;47.530;8.584;2023-06-19T17:34:17;29.50;71.00
61255;DHT22;47128;47.530;8.584;2023-06-19T17:39:09;29.30;68.60
61255;DHT22;47128;47.530;8.584;2023-06-19T17:41:35;29.20;69.50
61255;DHT22;47128;47.530;8.584;2023-06-19T17:44:05;28.90;69.00
61255;DHT22;47128;47.530;8.584;2023-06-19T17:46:31;28.70;69.80
61255;DHT22;47128;47.530;8.584;2023-06-19T17:48:56;28.50;69.90
61255;DHT22;47128;47.530;8.584;2023-06-19T17:51:22;28.40;70.40
61255;DHT22;47128;47.530;8.584;2023-06-19T17:53:48;28.30;70.60
61255;DHT22;47128;47.530;8.584;2023-06-19T17:59:20;28.30;70.90
61255;DHT22;47128;47.530;8.584;2023-06-19T18:01:46;28.10;71.30
61255;DHT22;47128;47.530;8.584;2023-06-19T18:04:12;28.10;71.70
61255;DHT22;47128;47.530;8.584;2023-06-19T18:06:38;27.90;72.20
61255;DHT22;47128;47.530;8.584;2023-06-19T18:09:03;27.80;73.00
61255;DHT22;47128;47.530;8.584;2023-06-19T18:11:29;27.60;76.70
61255;DHT22;47128;47.530;8.584;2023-06-19T18:13:55;27.50;73.40
61255;DHT22;47128;47.530;8.584;2023-06-19T18:16:20;27.50;73.30
61255;DHT22;47128;47.530;8.584;2023-06-19T18:18:46;27.30;73.90
61255;DHT22;47128;47.530;8.584;2023-06-19T18:21:11;27.20;74.70
61255;DHT22;47128;47.530;8.584;2023-06-19T18:23:37;27.10;78.30
61255;DHT22;47128;47.530;8.584;2023-06-19T18:26:02;26.90;77.20
61255;DHT22;47128;47.530;8.584;2023-06-19T18:28:28;26.80;78.20
61255;DHT22;47128;47.530;8.584;2023-06-19T18:30:53;26.70;79.10
61255;DHT22;47128;47.530;8.584;2023-06-19T18:33:19;26.50;80.40
61255;DHT22;47128;47.530;8.584;2023-06-19T18:35:44;26.30;79.40
61255;DHT22;47128;47.530;8.584;2023-06-19T18:40:38;26.10;80.70
61255;DHT22;47128;47.530;8.584;2023-06-19T18:43:04;26.00;81.90
61255;DHT22;47128;47.530;8.584;2023-06-19T18:45:30;25.80;82.60
61255;DHT22;47128;47.530;8.584;2023-06-19T18:47:57;25.50;83.30
61255;DHT22;47128;47.530;8.584;2023-06-19T18:50:22;25.50;83.70
61255;DHT22;47128;47.530;8.584;2023-06-19T18:52:48;25.30;84.60
61255;DHT22;47128;47.530;8.584;2023-06-19T18:55:13;25.20;85.30
61255;DHT22;47128;47.530;8.584;2023-06-19T18:57:39;25.10;84.40
61255;DHT22;47128;47.530;8.584;2023-06-19T19:00:04;25.10;85.70
61255;DHT22;47128;47.530;8.584;2023-06-19T19:02:30;25.00;85.70
61255;DHT22;47128;47.530;8.584;2023-06-19T19:07:21;24.90;86.60
61255;DHT22;47128;47.530;8.584;2023-06-19T19:09:48;24.70;87.60
61255;DHT22;47128;47.530;8.584;2023-06-19T19:12:13;24.70;88.00
61255;DHT22;47128;47.530;8.584;2023-06-19T19:14:39;24.50;88.80
61255;DHT22;47128;47.530;8.584;2023-06-19T19:17:05;24.30;89.90
61255;DHT22;47128;47.530;8.584;2023-06-19T19:19:30;24.30;90.20
61255;DHT22;47128;47.530;8.584;2023-06-19T19:21:56;24.20;90.50
61255;DHT22;47128;47.530;8.584;2023-06-19T19:24:21;24.20;91.70
61255;DHT22;47128;47.530;8.584;2023-06-19T19:26:47;24.00;91.20
61255;DHT22;47128;47.530;8.584;2023-06-19T19:29:12;24.00;92.00
61255;DHT22;47128;47.530;8.584;2023-06-19T19:31:38;23.90;92.70
61255;DHT22;47128;47.530;8.584;2023-06-19T19:34:03;23.80;93.00
61255;DHT22;47128;47.530;8.584;2023-06-19T19:36:29;23.50;93.00
61255;DHT22;47128;47.530;8.584;2023-06-19T19:38:54;23.50;93.40
61255;DHT22;47128;47.530;8.584;2023-06-19T19:41:20;23.40;93.10
61255;DHT22;47128;47.530;8.584;2023-06-19T19:43:45;23.30;93.50
61255;DHT22;47128;47.530;8.584;2023-06-19T19:46:11;23.30;94.60
61255;DHT22;47128;47.530;8.584;2023-06-19T19:51:03;23.20;95.20
61255;DHT22;47128;47.530;8.584;2023-06-19T19:53:28;23.30;95.10